createdAt,value
2023-05-16T00:01:02.659Z,11.59
2023-05-16T00:03:50.287Z,11.59
2023-05-16T00:06:38.943Z,11.60
2023-05-16T00:09:29.175Z,11.60
2023-05-16T00:12:18.099Z,11.60
2023-05-16T00:15:08.975Z,11.59
2023-05-16T00:18:00.038Z,11.57
2023-05-16T00:20:53.241Z,11.55
2023-05-16T00:23:41.194Z,11.53
2023-05-16T00:26:29.216Z,11.52
2023-05-16T00:29:17.820Z,11.49
2023-05-16T00:32:08.938Z,11.46
2023-05-16T00:34:57.024Z,11.45
2023-05-16T00:37:45.039Z,11.42
2023-05-16T00:40:33.115Z,11.40
2023-05-16T00:43:20.851Z,11.37
2023-05-16T00:46:11.957Z,11.37
2023-05-16T00:49:00.353Z,11.37
2023-05-16T00:51:49.631Z,11.35
2023-05-16T00:54:39.159Z,11.32
2023-05-16T00:57:27.828Z,11.30
2023-05-16T01:00:17.883Z,11.29
2023-05-16T01:03:06.612Z,11.29
2023-05-16T01:05:54.766Z,11.29
2023-05-16T01:08:43.158Z,11.31
2023-05-16T01:12:07.692Z,11.33
2023-05-16T01:15:20.216Z,11.33
2023-05-16T01:18:43.482Z,11.33
2023-05-16T01:21:53.207Z,11.31
2023-05-16T01:25:20.449Z,11.30
2023-05-16T01:28:10.395Z,11.27
2023-05-16T01:30:58.648Z,11.25
2023-05-16T01:33:47.958Z,11.24
2023-05-16T01:37:12.033Z,11.23
2023-05-16T01:40:09.894Z,11.22
2023-05-16T01:43:02.093Z,11.19
2023-05-16T01:46:25.957Z,11.18
2023-05-16T01:49:27.140Z,11.15
2023-05-16T01:52:39.263Z,11.15
2023-05-16T01:55:41.964Z,11.13
2023-05-16T01:58:34.661Z,11.13
2023-05-16T02:01:23.288Z,11.14
2023-05-16T02:04:11.750Z,11.12
2023-05-16T02:07:01.243Z,11.10
2023-05-16T02:09:49.705Z,11.08
2023-05-16T02:12:37.752Z,11.07
2023-05-16T02:15:26.477Z,11.08
2023-05-16T02:18:14.860Z,11.10
2023-05-16T02:21:04.597Z,11.09
2023-05-16T02:23:52.421Z,11.09
2023-05-16T02:26:40.503Z,11.09
2023-05-16T02:29:28.332Z,11.08
2023-05-16T02:32:16.392Z,11.07
2023-05-16T02:35:05.257Z,11.06
2023-05-16T02:37:52.997Z,11.02
2023-05-16T02:40:41.335Z,11.00
2023-05-16T02:43:29.129Z,10.94
2023-05-16T02:46:49.013Z,10.90
2023-05-16T02:49:37.862Z,10.86
2023-05-16T02:52:26.356Z,10.86
2023-05-16T02:58:05.446Z,10.85
2023-05-16T03:00:53.472Z,10.87
2023-05-16T03:03:43.103Z,10.87
2023-05-16T03:06:31.629Z,10.90
2023-05-16T03:09:21.917Z,10.93
2023-05-16T03:12:10.297Z,10.96
2023-05-16T03:14:58.926Z,10.99
2023-05-16T03:17:47.311Z,10.99
2023-05-16T03:20:36.220Z,11.00
2023-05-16T03:23:25.108Z,11.00
2023-05-16T03:26:18.121Z,10.99
2023-05-16T03:29:06.626Z,11.00
2023-05-16T03:31:55.362Z,10.99
2023-05-16T03:34:43.730Z,11.00
2023-05-16T03:37:32.035Z,11.00
2023-05-16T03:40:20.076Z,11.00
2023-05-16T03:43:09.737Z,10.99
2023-05-16T03:45:57.891Z,10.97
2023-05-16T03:48:46.589Z,10.97
2023-05-16T03:51:34.547Z,10.94
2023-05-16T03:54:23.137Z,10.91
2023-05-16T03:57:11.151Z,10.88
2023-05-16T03:59:59.806Z,10.83
2023-05-16T04:02:48.257Z,10.78
2023-05-16T04:05:36.641Z,10.75
2023-05-16T04:08:25.926Z,10.72
2023-05-16T04:11:16.208Z,10.69
2023-05-16T04:14:04.715Z,10.67
2023-05-16T04:16:53.400Z,10.60
2023-05-16T04:19:41.272Z,10.50
2023-05-16T04:22:30.412Z,10.44
2023-05-16T04:25:24.711Z,10.42
2023-05-16T04:28:13.659Z,10.40
2023-05-16T04:31:02.185Z,10.44
2023-05-16T04:33:50.467Z,10.46
2023-05-16T04:36:39.473Z,10.47
2023-05-16T04:39:28.221Z,10.51
2023-05-16T04:42:17.765Z,10.54
2023-05-16T04:45:06.922Z,10.54
2023-05-16T04:47:55.598Z,10.51
2023-05-16T04:50:48.287Z,10.43
2023-05-16T04:53:36.133Z,10.39
2023-05-16T04:56:23.982Z,10.35
2023-05-16T04:59:13.912Z,10.31
2023-05-16T05:02:04.431Z,10.27
2023-05-16T05:04:52.815Z,10.27
2023-05-16T05:07:41.069Z,10.33
2023-05-16T05:10:28.783Z,10.37
2023-05-16T05:13:17.289Z,10.30
2023-05-16T05:16:07.025Z,10.44
2023-05-16T05:18:56.428Z,10.49
2023-05-16T05:21:45.520Z,10.52
2023-05-16T05:24:33.310Z,10.53
2023-05-16T05:27:21.588Z,10.51
2023-05-16T05:30:09.954Z,10.53
2023-05-16T05:32:57.693Z,10.53
2023-05-16T05:35:46.146Z,10.54
2023-05-16T05:38:34.210Z,10.52
2023-05-16T05:41:22.768Z,10.50
2023-05-16T05:44:10.997Z,10.57
2023-05-16T05:46:59.638Z,10.62
2023-05-16T05:49:49.312Z,10.70
2023-05-16T05:52:39.440Z,10.77
2023-05-16T05:55:28.145Z,10.85
2023-05-16T05:58:16.395Z,10.95
2023-05-16T06:01:04.743Z,11.03
2023-05-16T06:03:52.971Z,11.09
2023-05-16T06:06:41.812Z,11.12
2023-05-16T06:09:31.068Z,11.16
2023-05-16T06:12:19.380Z,11.21
2023-05-16T06:15:08.779Z,11.25
2023-05-16T06:17:56.710Z,11.38
2023-05-16T06:20:46.312Z,11.42
2023-05-16T06:23:37.564Z,11.41
2023-05-16T06:26:26.001Z,11.39
2023-05-16T06:29:14.964Z,11.34
2023-05-16T06:32:07.695Z,11.28
2023-05-16T06:34:56.160Z,11.29
2023-05-16T06:37:44.414Z,11.25
2023-05-16T06:40:32.550Z,11.27
2023-05-16T06:43:20.912Z,11.16
2023-05-16T06:46:09.360Z,11.15
2023-05-16T06:48:57.814Z,11.10
2023-05-16T06:51:46.489Z,11.05
2023-05-16T06:54:35.330Z,11.02
2023-05-16T06:57:24.224Z,10.96
2023-05-16T07:00:13.224Z,10.88
2023-05-16T07:03:02.135Z,10.79
2023-05-16T07:05:53.241Z,10.80
2023-05-16T07:08:41.878Z,10.82
2023-05-16T07:11:32.526Z,10.95
2023-05-16T07:14:20.413Z,11.08
2023-05-16T07:17:11.975Z,11.10
2023-05-16T07:20:01.728Z,10.96
2023-05-16T07:22:50.990Z,10.94
2023-05-16T07:25:39.283Z,10.96
2023-05-16T07:28:27.185Z,10.91
2023-05-16T07:31:17.172Z,10.86
2023-05-16T07:34:05.380Z,10.86
2023-05-16T07:36:54.185Z,10.88
2023-05-16T07:39:43.540Z,10.99
2023-05-16T07:42:32.166Z,11.13
2023-05-16T07:45:19.968Z,11.20
2023-05-16T07:48:08.283Z,11.29
2023-05-16T07:50:56.782Z,11.30
2023-05-16T07:53:45.917Z,11.27
2023-05-16T07:56:34.276Z,11.24
2023-05-16T07:59:22.426Z,11.22
2023-05-16T08:02:11.714Z,11.16
2023-05-16T08:05:00.596Z,11.15
2023-05-16T08:07:48.998Z,11.14
2023-05-16T08:10:37.129Z,11.13
2023-05-16T08:13:25.550Z,11.12
2023-05-16T08:16:14.360Z,11.13
2023-05-16T08:19:02.683Z,11.15
2023-05-16T08:21:52.251Z,11.15
2023-05-16T08:24:40.393Z,11.21
2023-05-16T08:27:29.090Z,11.25
2023-05-16T08:30:17.901Z,11.28
2023-05-16T08:33:06.978Z,11.30
2023-05-16T08:35:55.310Z,11.25
2023-05-16T08:38:46.267Z,11.28
2023-05-16T08:41:34.611Z,11.31
2023-05-16T08:44:22.735Z,11.24
2023-05-16T08:47:25.041Z,11.22
2023-05-16T08:50:16.910Z,11.22
2023-05-16T08:53:08.570Z,11.25
2023-05-16T08:55:58.117Z,11.26
2023-05-16T08:58:47.069Z,11.31
2023-05-16T09:01:36.198Z,11.36
2023-05-16T09:04:26.297Z,11.39
2023-05-16T09:07:14.562Z,11.33
2023-05-16T09:10:03.744Z,11.31
2023-05-16T09:12:52.033Z,11.37
2023-05-16T09:15:40.205Z,11.68
2023-05-16T09:18:28.956Z,12.07
2023-05-16T09:21:17.360Z,12.37
2023-05-16T09:24:09.133Z,12.61
2023-05-16T09:26:57.154Z,12.84
2023-05-16T09:29:51.156Z,12.83
2023-05-16T09:32:44.149Z,12.77
2023-05-16T09:38:27.343Z,12.59
2023-05-16T09:41:15.454Z,12.64
2023-05-16T09:44:07.732Z,12.74
2023-05-16T09:46:56.399Z,12.81
2023-05-16T09:49:50.187Z,12.88
2023-05-16T09:52:39.862Z,12.94
2023-05-16T09:55:28.860Z,13.06
2023-05-16T09:58:19.000Z,13.08
2023-05-16T10:01:08.428Z,12.95
2023-05-16T10:03:56.472Z,12.78
2023-05-16T10:06:46.344Z,12.67
2023-05-16T10:09:34.796Z,12.63
2023-05-16T10:12:30.126Z,12.47
2023-05-16T10:15:21.030Z,12.48
2023-05-16T10:18:13.530Z,12.52
2023-05-16T10:21:23.765Z,12.62
2023-05-16T10:24:18.112Z,12.68
2023-05-16T10:27:06.550Z,12.93
2023-05-16T10:29:57.306Z,13.40
2023-05-16T10:32:48.513Z,13.95
2023-05-16T10:35:38.846Z,14.60
2023-05-16T10:38:29.416Z,15.52
2023-05-16T10:41:19.354Z,16.64
2023-05-16T10:44:16.901Z,17.03
2023-05-16T10:47:06.827Z,17.17
2023-05-16T10:49:55.980Z,17.22
2023-05-16T10:52:44.630Z,17.28
2023-05-16T10:55:33.157Z,17.12
2023-05-16T10:58:42.930Z,16.89
2023-05-16T11:01:34.134Z,17.45
2023-05-16T11:04:22.270Z,18.03
2023-05-16T11:07:12.093Z,18.99
2023-05-16T11:10:16.639Z,19.71
2023-05-16T11:13:11.643Z,20.09
2023-05-16T11:16:29.384Z,19.67
2023-05-16T11:19:42.695Z,18.90
2023-05-16T11:22:33.710Z,18.05
2023-05-16T11:25:41.467Z,17.37
2023-05-16T11:28:30.255Z,16.84
2023-05-16T11:31:18.942Z,16.36
2023-05-16T11:34:06.806Z,15.91
2023-05-16T11:36:56.477Z,15.58
2023-05-16T11:39:45.847Z,15.46
2023-05-16T11:42:46.687Z,15.34
2023-05-16T11:45:35.912Z,15.40
2023-05-16T11:48:35.774Z,15.37
2023-05-16T11:51:25.247Z,15.28
2023-05-16T11:54:13.918Z,15.25
2023-05-16T11:57:02.350Z,15.21
2023-05-16T11:59:52.093Z,15.16
2023-05-16T12:02:41.018Z,15.24
2023-05-16T12:05:31.874Z,15.19
2023-05-16T12:08:22.735Z,15.10
2023-05-16T12:11:11.830Z,15.05
2023-05-16T12:14:02.557Z,14.97
2023-05-16T12:16:52.818Z,15.05
2023-05-16T12:19:41.884Z,14.96
2023-05-16T12:22:29.873Z,14.91
2023-05-16T12:25:36.524Z,14.81
2023-05-16T12:28:24.661Z,14.74
2023-05-16T12:31:31.087Z,14.59
2023-05-16T12:34:21.749Z,14.38
2023-05-16T12:37:10.144Z,14.16
2023-05-16T12:40:04.351Z,13.95
2023-05-16T12:42:54.047Z,13.85
2023-05-16T12:45:43.622Z,13.72
2023-05-16T12:48:35.899Z,13.60
2023-05-16T12:51:24.910Z,13.38
2023-05-16T12:54:15.132Z,13.25
2023-05-16T12:57:10.273Z,13.06
2023-05-16T12:59:58.329Z,12.89
2023-05-16T13:02:48.849Z,12.81
2023-05-16T13:05:37.005Z,12.82
2023-05-16T13:08:25.810Z,12.65
2023-05-16T13:11:14.677Z,12.55
2023-05-16T13:14:03.107Z,12.49
2023-05-16T13:16:51.652Z,12.44
2023-05-16T13:19:39.808Z,12.31
2023-05-16T13:22:27.732Z,12.24
2023-05-16T13:25:16.403Z,12.17
2023-05-16T13:28:05.016Z,12.11
2023-05-16T13:30:54.732Z,12.05
2023-05-16T13:33:42.873Z,12.00
2023-05-16T13:36:41.543Z,11.98
2023-05-16T13:39:30.422Z,11.97
2023-05-16T13:42:18.778Z,11.96
2023-05-16T13:45:09.142Z,11.94
2023-05-16T13:47:57.423Z,11.91
2023-05-16T13:50:47.323Z,11.92
2023-05-16T13:53:36.313Z,11.97
2023-05-16T13:56:24.436Z,12.01
2023-05-16T13:59:16.838Z,12.05
2023-05-16T14:02:14.001Z,12.11
2023-05-16T14:05:02.420Z,12.17
2023-05-16T14:07:50.723Z,12.22
2023-05-16T14:10:39.269Z,12.21
2023-05-16T14:13:27.777Z,12.19
2023-05-16T14:16:21.567Z,12.15
2023-05-16T14:19:09.976Z,12.06
2023-05-16T14:21:58.336Z,11.97
2023-05-16T14:24:46.808Z,11.90
2023-05-16T14:27:38.582Z,11.80
2023-05-16T14:30:27.740Z,11.71
2023-05-16T14:33:16.771Z,11.67
2023-05-16T14:36:08.413Z,11.62
2023-05-16T14:38:57.104Z,11.56
2023-05-16T14:41:45.952Z,11.54
2023-05-16T14:44:34.351Z,11.52
2023-05-16T14:47:22.665Z,11.51
2023-05-16T14:50:11.280Z,11.50
2023-05-16T14:52:59.976Z,11.51
2023-05-16T14:55:50.472Z,11.47
2023-05-16T14:58:38.682Z,11.41
2023-05-16T15:01:28.404Z,11.36
2023-05-16T15:04:18.936Z,11.34
2023-05-16T15:07:07.690Z,11.34
2023-05-16T15:09:56.772Z,11.31
2023-05-16T15:12:44.969Z,11.28
2023-05-16T15:15:34.080Z,11.26
2023-05-16T15:18:22.109Z,11.38
2023-05-16T15:21:10.604Z,11.48
2023-05-16T15:23:59.216Z,11.54
2023-05-16T15:26:47.797Z,11.50
2023-05-16T15:29:35.788Z,11.45
2023-05-16T15:32:26.296Z,11.39
2023-05-16T15:35:14.394Z,11.31
2023-05-16T15:38:02.713Z,11.24
2023-05-16T15:41:09.711Z,11.18
2023-05-16T15:44:01.903Z,11.04
2023-05-16T15:46:51.403Z,10.98
2023-05-16T15:49:39.989Z,10.95
2023-05-16T15:52:29.585Z,10.88
2023-05-16T15:55:18.098Z,10.82
2023-05-16T15:58:06.826Z,10.74
2023-05-16T16:00:56.863Z,10.67
2023-05-16T16:03:45.222Z,10.58
2023-05-16T16:06:33.812Z,10.54
2023-05-16T16:09:24.576Z,10.50
2023-05-16T16:12:15.094Z,10.53
2023-05-16T16:15:06.797Z,10.54
2023-05-16T16:17:54.930Z,10.53
2023-05-16T16:20:43.481Z,10.51
2023-05-16T16:23:32.174Z,10.49
2023-05-16T16:26:20.298Z,10.47
2023-05-16T16:29:10.315Z,10.46
2023-05-16T16:31:59.998Z,10.37
2023-05-16T16:34:49.561Z,10.31
2023-05-16T16:37:37.645Z,10.28
2023-05-16T16:40:26.467Z,10.27
2023-05-16T16:43:18.310Z,10.25
2023-05-16T16:46:08.483Z,10.26
2023-05-16T16:48:59.702Z,10.30
2023-05-16T16:51:48.386Z,10.32
2023-05-16T16:54:36.646Z,10.37
2023-05-16T16:57:25.041Z,10.44
2023-05-16T17:00:14.384Z,10.49
2023-05-16T17:03:05.011Z,10.52
2023-05-16T17:05:53.475Z,10.53
2023-05-16T17:08:42.129Z,10.53
2023-05-16T17:11:31.829Z,10.54
2023-05-16T17:14:21.745Z,10.52
2023-05-16T17:17:10.156Z,10.50
2023-05-16T17:19:59.954Z,10.48
2023-05-16T17:22:48.995Z,10.44
2023-05-16T17:25:37.128Z,10.41
2023-05-16T17:28:26.267Z,10.39
2023-05-16T17:31:14.487Z,10.39
2023-05-16T17:34:02.713Z,10.38
2023-05-16T17:36:51.118Z,10.37
2023-05-16T17:39:39.872Z,10.35
2023-05-16T17:42:28.249Z,10.32
2023-05-16T17:45:16.730Z,10.31
2023-05-16T17:48:05.843Z,10.30
2023-05-16T17:50:54.033Z,10.29
2023-05-16T17:53:42.155Z,10.26
2023-05-16T17:56:31.180Z,10.21
2023-05-16T17:59:22.876Z,10.15
2023-05-16T18:02:16.377Z,10.11
2023-05-16T18:05:07.115Z,10.05
2023-05-16T18:07:55.229Z,9.98
2023-05-16T18:10:51.582Z,9.93
2023-05-16T18:13:41.393Z,9.86
2023-05-16T18:16:34.422Z,9.81
2023-05-16T18:19:26.273Z,9.77
2023-05-16T18:22:15.523Z,9.71
2023-05-16T18:25:10.042Z,9.65
2023-05-16T18:27:58.485Z,9.58
2023-05-16T18:30:47.390Z,9.51
2023-05-16T18:33:40.667Z,9.50
2023-05-16T18:36:29.008Z,9.45
2023-05-16T18:39:19.063Z,9.42
2023-05-16T18:42:08.961Z,9.38
2023-05-16T18:44:59.793Z,9.33
2023-05-16T18:47:49.297Z,9.29
2023-05-16T18:50:37.780Z,9.25
2023-05-16T18:53:27.232Z,9.22
2023-05-16T18:56:18.826Z,9.19
2023-05-16T18:59:07.513Z,9.15
2023-05-16T19:01:56.453Z,9.11
2023-05-16T19:04:45.173Z,9.09
2023-05-16T19:07:37.171Z,9.07
2023-05-16T19:10:25.848Z,9.04
2023-05-16T19:13:14.041Z,9.01
2023-05-16T19:16:02.369Z,9.00
2023-05-16T19:18:50.908Z,8.97
2023-05-16T19:21:40.919Z,8.95
2023-05-16T19:24:29.300Z,8.93
2023-05-16T19:27:17.738Z,8.92
2023-05-16T19:30:07.687Z,8.92
2023-05-16T19:32:59.103Z,8.91
2023-05-16T19:35:48.322Z,8.91
2023-05-16T19:38:37.527Z,8.90
2023-05-16T19:41:36.764Z,8.87
2023-05-16T19:44:26.814Z,8.81
2023-05-16T19:47:17.075Z,8.78
2023-05-16T19:50:07.082Z,8.76
2023-05-16T19:52:55.724Z,8.74
2023-05-16T19:55:44.505Z,8.72
2023-05-16T19:58:33.244Z,8.70
2023-05-16T20:01:28.180Z,8.68
2023-05-16T20:04:16.690Z,8.65
2023-05-16T20:07:05.620Z,8.62
2023-05-16T20:09:56.701Z,8.62
2023-05-16T20:12:46.874Z,8.60
2023-05-16T20:15:36.866Z,8.60
2023-05-16T20:18:26.450Z,8.58
2023-05-16T20:21:16.803Z,8.56
2023-05-16T20:24:06.287Z,8.54
2023-05-16T20:27:05.033Z,8.52
2023-05-16T20:29:54.437Z,8.48
2023-05-16T20:32:43.143Z,8.49
2023-05-16T20:35:31.231Z,8.46
2023-05-16T20:38:19.986Z,8.43
2023-05-16T20:41:07.932Z,8.41
2023-05-16T20:43:56.832Z,8.38
2023-05-16T20:46:45.062Z,8.35
2023-05-16T20:49:37.356Z,8.31
2023-05-16T20:52:28.028Z,8.26
2023-05-16T20:55:17.477Z,8.22
2023-05-16T20:58:06.402Z,8.17
2023-05-16T21:00:54.931Z,8.14
2023-05-16T21:03:44.641Z,8.12
2023-05-16T21:06:33.863Z,8.08
2023-05-16T21:09:21.920Z,8.06
2023-05-16T21:12:11.724Z,8.02
2023-05-16T21:15:00.293Z,7.99
2023-05-16T21:17:48.736Z,7.97
2023-05-16T21:20:37.289Z,7.96
2023-05-16T21:23:25.497Z,7.94
2023-05-16T21:26:15.270Z,7.93
2023-05-16T21:29:03.529Z,7.92
2023-05-16T21:31:52.538Z,7.89
2023-05-16T21:34:42.621Z,7.87
2023-05-16T21:37:30.809Z,7.86
2023-05-16T21:40:24.940Z,7.83
2023-05-16T21:43:13.497Z,7.82
2023-05-16T21:46:01.291Z,7.80
2023-05-16T21:48:49.670Z,7.78
2023-05-16T21:51:39.472Z,7.76
2023-05-16T21:54:27.700Z,7.73
2023-05-16T21:57:15.678Z,7.71
2023-05-16T22:00:06.945Z,7.68
2023-05-16T22:02:56.351Z,7.68
2023-05-16T22:05:48.797Z,7.67
2023-05-16T22:08:37.718Z,7.66
2023-05-16T22:11:26.531Z,7.65
2023-05-16T22:14:14.938Z,7.64
2023-05-16T22:17:03.797Z,7.62
2023-05-16T22:19:51.775Z,7.61
2023-05-16T22:22:41.720Z,7.60
2023-05-16T22:25:30.589Z,7.58
2023-05-16T22:28:18.602Z,7.61
2023-05-16T22:31:07.349Z,7.61
2023-05-16T22:33:55.662Z,7.60
2023-05-16T22:36:44.802Z,7.58
2023-05-16T22:39:33.347Z,7.55
2023-05-16T22:42:21.534Z,7.52
2023-05-16T22:45:10.388Z,7.48
2023-05-16T22:47:58.767Z,7.45
2023-05-16T22:50:47.595Z,7.43
2023-05-16T22:53:35.643Z,7.40
2023-05-16T22:56:23.775Z,7.39
2023-05-16T22:59:12.664Z,7.37
2023-05-16T23:02:01.678Z,7.34
2023-05-16T23:04:49.900Z,7.30
2023-05-16T23:07:39.310Z,7.27
2023-05-16T23:10:28.998Z,7.23
2023-05-16T23:13:18.036Z,7.21
2023-05-16T23:16:06.793Z,7.20
2023-05-16T23:18:55.524Z,7.20
2023-05-16T23:21:44.638Z,7.19
2023-05-16T23:24:32.678Z,7.19
2023-05-16T23:27:21.073Z,7.18
2023-05-16T23:30:11.473Z,7.18
2023-05-16T23:33:01.133Z,7.18
2023-05-16T23:35:50.335Z,7.18
2023-05-16T23:38:39.345Z,7.19
2023-05-16T23:41:27.164Z,7.21
2023-05-16T23:44:15.425Z,7.22
2023-05-16T23:47:05.270Z,7.23
2023-05-16T23:49:54.347Z,7.23
2023-05-16T23:52:43.044Z,7.23
2023-05-16T23:55:31.054Z,7.24
2023-05-16T23:58:19.056Z,7.24
